sensor_id;sensor_type;location;lat;lon;timestamp;P1;durP1;ratioP1;P2;durP2;ratioP2
7997;SDS011;4044;49.814;7.828;2023-04-21T00:02:23;36.57;;;28.73;;
7997;SDS011;4044;49.814;7.828;2023-04-21T00:04:49;34.97;;;28.60;;
7997;SDS011;4044;49.814;7.828;2023-04-21T00:07:15;32.77;;;27.60;;
7997;SDS011;4044;49.814;7.828;2023-04-21T00:09:41;33.10;;;27.80;;
7997;SDS011;4044;49.814;7.828;2023-04-21T00:12:06;34.83;;;26.47;;
7997;SDS011;4044;49.814;7.828;2023-04-21T00:14:32;33.37;;;27.17;;
7997;SDS011;4044;49.814;7.828;2023-04-21T00:16:57;31.83;;;26.50;;
7997;SDS011;4044;49.814;7.828;2023-04-21T00:19:24;30.33;;;24.47;;
7997;SDS011;4044;49.814;7.828;2023-04-21T00:21:50;32.33;;;26.27;;
7997;SDS011;4044;49.814;7.828;2023-04-21T00:24:15;29.50;;;25.87;;
7997;SDS011;4044;49.814;7.828;2023-04-21T00:26:41;33.83;;;26.97;;
7997;SDS011;4044;49.814;7.828;2023-04-21T00:29:06;33.10;;;27.00;;
7997;SDS011;4044;49.814;7.828;2023-04-21T00:31:32;29.47;;;25.40;;
7997;SDS011;4044;49.814;7.828;2023-04-21T00:33:58;30.03;;;25.47;;
7997;SDS011;4044;49.814;7.828;2023-04-21T00:36:23;31.37;;;25.47;;
7997;SDS011;4044;49.814;7.828;2023-04-21T00:38:52;33.53;;;26.67;;
7997;SDS011;4044;49.814;7.828;2023-04-21T00:41:17;30.90;;;25.60;;
7997;SDS011;4044;49.814;7.828;2023-04-21T00:46:31;27.73;;;24.37;;
7997;SDS011;4044;49.814;7.828;2023-04-21T00:48:57;30.17;;;24.67;;
7997;SDS011;4044;49.814;7.828;2023-04-21T00:51:24;30.90;;;24.63;;
7997;SDS011;4044;49.814;7.828;2023-04-21T00:53:52;33.17;;;26.73;;
7997;SDS011;4044;49.814;7.828;2023-04-21T00:56:19;30.80;;;26.63;;
7997;SDS011;4044;49.814;7.828;2023-04-21T00:58:45;30.27;;;25.63;;
7997;SDS011;4044;49.814;7.828;2023-04-21T01:01:13;32.60;;;26.43;;
7997;SDS011;4044;49.814;7.828;2023-04-21T01:03:39;30.07;;;25.10;;
7997;SDS011;4044;49.814;7.828;2023-04-21T01:06:06;28.73;;;24.40;;
7997;SDS011;4044;49.814;7.828;2023-04-21T01:08:32;32.03;;;24.87;;
7997;SDS011;4044;49.814;7.828;2023-04-21T01:10:59;31.20;;;26.13;;
7997;SDS011;4044;49.814;7.828;2023-04-21T01:13:24;28.30;;;24.47;;
7997;SDS011;4044;49.814;7.828;2023-04-21T01:15:50;30.27;;;24.60;;
7997;SDS011;4044;49.814;7.828;2023-04-21T01:18:15;32.60;;;25.27;;
7997;SDS011;4044;49.814;7.828;2023-04-21T01:20:42;27.63;;;23.70;;
7997;SDS011;4044;49.814;7.828;2023-04-21T01:23:08;27.50;;;23.23;;
7997;SDS011;4044;49.814;7.828;2023-04-21T01:25:35;29.10;;;24.13;;
7997;SDS011;4044;49.814;7.828;2023-04-21T01:28:00;26.70;;;23.50;;
7997;SDS011;4044;49.814;7.828;2023-04-21T01:30:26;26.00;;;22.50;;
7997;SDS011;4044;49.814;7.828;2023-04-21T01:32:52;27.47;;;23.40;;
7997;SDS011;4044;49.814;7.828;2023-04-21T01:35:17;28.23;;;22.90;;
7997;SDS011;4044;49.814;7.828;2023-04-21T01:37:43;26.57;;;22.40;;
7997;SDS011;4044;49.814;7.828;2023-04-21T01:40:09;25.43;;;21.80;;
7997;SDS011;4044;49.814;7.828;2023-04-21T01:42:37;28.57;;;23.23;;
7997;SDS011;4044;49.814;7.828;2023-04-21T01:45:04;28.13;;;23.70;;
7997;SDS011;4044;49.814;7.828;2023-04-21T01:47:30;26.87;;;23.07;;
7997;SDS011;4044;49.814;7.828;2023-04-21T01:49:56;28.83;;;22.57;;
7997;SDS011;4044;49.814;7.828;2023-04-21T01:52:22;26.33;;;22.73;;
7997;SDS011;4044;49.814;7.828;2023-04-21T01:54:47;27.10;;;22.47;;
7997;SDS011;4044;49.814;7.828;2023-04-21T01:57:13;26.73;;;22.97;;
7997;SDS011;4044;49.814;7.828;2023-04-21T01:59:39;28.23;;;23.13;;
7997;SDS011;4044;49.814;7.828;2023-04-21T02:02:05;28.10;;;22.67;;
7997;SDS011;4044;49.814;7.828;2023-04-21T02:04:30;28.83;;;23.70;;
7997;SDS011;4044;49.814;7.828;2023-04-21T02:06:56;29.87;;;23.70;;
7997;SDS011;4044;49.814;7.828;2023-04-21T02:09:21;30.07;;;23.43;;
7997;SDS011;4044;49.814;7.828;2023-04-21T02:11:47;30.53;;;24.17;;
7997;SDS011;4044;49.814;7.828;2023-04-21T02:14:12;30.50;;;23.83;;
7997;SDS011;4044;49.814;7.828;2023-04-21T02:16:38;32.43;;;25.40;;
7997;SDS011;4044;49.814;7.828;2023-04-21T02:19:03;32.43;;;25.67;;
7997;SDS011;4044;49.814;7.828;2023-04-21T02:21:30;33.90;;;26.57;;
7997;SDS011;4044;49.814;7.828;2023-04-21T02:23:56;32.60;;;25.63;;
7997;SDS011;4044;49.814;7.828;2023-04-21T02:26:22;34.80;;;27.33;;
7997;SDS011;4044;49.814;7.828;2023-04-21T02:28:47;36.23;;;27.13;;
7997;SDS011;4044;49.814;7.828;2023-04-21T02:31:14;34.90;;;27.43;;
7997;SDS011;4044;49.814;7.828;2023-04-21T02:33:40;35.50;;;27.57;;
7997;SDS011;4044;49.814;7.828;2023-04-21T02:36:05;39.07;;;29.53;;
7997;SDS011;4044;49.814;7.828;2023-04-21T02:38:31;37.43;;;27.47;;
7997;SDS011;4044;49.814;7.828;2023-04-21T02:40:56;38.13;;;28.20;;
7997;SDS011;4044;49.814;7.828;2023-04-21T02:43:22;36.77;;;28.40;;
7997;SDS011;4044;49.814;7.828;2023-04-21T02:45:49;36.80;;;28.43;;
7997;SDS011;4044;49.814;7.828;2023-04-21T02:48:15;35.43;;;27.70;;
7997;SDS011;4044;49.814;7.828;2023-04-21T02:50:44;35.77;;;28.03;;
7997;SDS011;4044;49.814;7.828;2023-04-21T02:53:10;37.13;;;29.20;;
7997;SDS011;4044;49.814;7.828;2023-04-21T02:55:36;38.00;;;29.63;;
7997;SDS011;4044;49.814;7.828;2023-04-21T02:58:01;36.47;;;28.93;;
7997;SDS011;4044;49.814;7.828;2023-04-21T03:00:27;38.43;;;29.67;;
7997;SDS011;4044;49.814;7.828;2023-04-21T03:02:52;38.60;;;28.40;;
7997;SDS011;4044;49.814;7.828;2023-04-21T03:05:18;36.77;;;28.40;;
7997;SDS011;4044;49.814;7.828;2023-04-21T03:07:44;38.63;;;30.57;;
7997;SDS011;4044;49.814;7.828;2023-04-21T03:10:10;39.50;;;29.30;;
7997;SDS011;4044;49.814;7.828;2023-04-21T03:12:35;38.87;;;29.03;;
7997;SDS011;4044;49.814;7.828;2023-04-21T03:15:01;37.60;;;28.50;;
7997;SDS011;4044;49.814;7.828;2023-04-21T03:17:26;37.53;;;28.40;;
7997;SDS011;4044;49.814;7.828;2023-04-21T03:19:52;38.40;;;28.97;;
7997;SDS011;4044;49.814;7.828;2023-04-21T03:22:17;34.97;;;26.90;;
7997;SDS011;4044;49.814;7.828;2023-04-21T03:24:43;37.87;;;28.53;;
7997;SDS011;4044;49.814;7.828;2023-04-21T03:27:08;35.23;;;27.47;;
7997;SDS011;4044;49.814;7.828;2023-04-21T03:29:34;37.67;;;28.30;;
7997;SDS011;4044;49.814;7.828;2023-04-21T03:32:00;37.60;;;28.20;;
7997;SDS011;4044;49.814;7.828;2023-04-21T03:34:25;36.67;;;27.87;;
7997;SDS011;4044;49.814;7.828;2023-04-21T03:36:51;34.70;;;26.93;;
7997;SDS011;4044;49.814;7.828;2023-04-21T03:39:17;38.80;;;29.33;;
7997;SDS011;4044;49.814;7.828;2023-04-21T03:41:42;39.77;;;28.57;;
7997;SDS011;4044;49.814;7.828;2023-04-21T03:44:08;38.53;;;28.53;;
7997;SDS011;4044;49.814;7.828;2023-04-21T03:46:33;40.53;;;28.80;;
7997;SDS011;4044;49.814;7.828;2023-04-21T03:48:59;39.73;;;29.13;;
7997;SDS011;4044;49.814;7.828;2023-04-21T03:51:24;41.13;;;29.70;;
7997;SDS011;4044;49.814;7.828;2023-04-21T03:53:51;42.87;;;30.83;;
7997;SDS011;4044;49.814;7.828;2023-04-21T03:56:16;42.57;;;30.60;;
7997;SDS011;4044;49.814;7.828;2023-04-21T03:58:42;38.77;;;28.57;;
7997;SDS011;4044;49.814;7.828;2023-04-21T04:01:08;43.83;;;30.23;;
7997;SDS011;4044;49.814;7.828;2023-04-21T04:03:33;39.77;;;28.90;;
7997;SDS011;4044;49.814;7.828;2023-04-21T04:05:58;44.03;;;31.00;;
7997;SDS011;4044;49.814;7.828;2023-04-21T04:08:24;40.67;;;29.83;;
7997;SDS011;4044;49.814;7.828;2023-04-21T04:10:50;40.87;;;30.23;;
7997;SDS011;4044;49.814;7.828;2023-04-21T04:13:15;42.47;;;30.47;;
7997;SDS011;4044;49.814;7.828;2023-04-21T04:15:41;37.30;;;28.17;;
7997;SDS011;4044;49.814;7.828;2023-04-21T04:18:06;41.00;;;30.13;;
7997;SDS011;4044;49.814;7.828;2023-04-21T04:20:32;39.77;;;29.23;;
7997;SDS011;4044;49.814;7.828;2023-04-21T04:22:57;39.83;;;29.80;;
7997;SDS011;4044;49.814;7.828;2023-04-21T04:25:23;41.40;;;30.17;;
7997;SDS011;4044;49.814;7.828;2023-04-21T04:27:48;40.43;;;30.00;;
7997;SDS011;4044;49.814;7.828;2023-04-21T04:30:14;40.60;;;29.40;;
7997;SDS011;4044;49.814;7.828;2023-04-21T04:32:40;38.23;;;27.67;;
7997;SDS011;4044;49.814;7.828;2023-04-21T04:35:06;35.93;;;27.63;;
7997;SDS011;4044;49.814;7.828;2023-04-21T04:37:34;37.00;;;28.57;;
7997;SDS011;4044;49.814;7.828;2023-04-21T04:40:01;37.10;;;27.70;;
7997;SDS011;4044;49.814;7.828;2023-04-21T04:42:29;36.03;;;26.77;;
7997;SDS011;4044;49.814;7.828;2023-04-21T04:44:56;37.50;;;28.00;;
7997;SDS011;4044;49.814;7.828;2023-04-21T04:47:23;35.77;;;28.60;;
7997;SDS011;4044;49.814;7.828;2023-04-21T04:49:49;39.60;;;29.60;;
7997;SDS011;4044;49.814;7.828;2023-04-21T04:52:14;37.13;;;28.50;;
7997;SDS011;4044;49.814;7.828;2023-04-21T04:54:40;41.20;;;28.87;;
7997;SDS011;4044;49.814;7.828;2023-04-21T04:57:06;39.63;;;29.33;;
7997;SDS011;4044;49.814;7.828;2023-04-21T04:59:31;40.03;;;29.67;;
7997;SDS011;4044;49.814;7.828;2023-04-21T05:01:57;39.23;;;29.60;;
7997;SDS011;4044;49.814;7.828;2023-04-21T05:04:22;35.83;;;27.70;;
7997;SDS011;4044;49.814;7.828;2023-04-21T05:06:48;35.93;;;26.83;;
7997;SDS011;4044;49.814;7.828;2023-04-21T05:09:13;37.93;;;27.13;;
7997;SDS011;4044;49.814;7.828;2023-04-21T05:11:39;34.63;;;26.03;;
7997;SDS011;4044;49.814;7.828;2023-04-21T05:14:05;36.73;;;26.23;;
7997;SDS011;4044;49.814;7.828;2023-04-21T05:16:30;35.57;;;27.10;;
7997;SDS011;4044;49.814;7.828;2023-04-21T05:18:59;33.87;;;25.73;;
7997;SDS011;4044;49.814;7.828;2023-04-21T05:21:25;32.03;;;24.50;;
7997;SDS011;4044;49.814;7.828;2023-04-21T05:23:55;35.03;;;24.83;;
7997;SDS011;4044;49.814;7.828;2023-04-21T05:26:21;33.80;;;24.70;;
7997;SDS011;4044;49.814;7.828;2023-04-21T05:28:47;32.27;;;25.17;;
7997;SDS011;4044;49.814;7.828;2023-04-21T05:31:13;34.53;;;25.20;;
7997;SDS011;4044;49.814;7.828;2023-04-21T05:33:39;34.07;;;24.47;;
7997;SDS011;4044;49.814;7.828;2023-04-21T05:36:08;34.30;;;24.10;;
7997;SDS011;4044;49.814;7.828;2023-04-21T05:38:34;36.13;;;24.03;;
7997;SDS011;4044;49.814;7.828;2023-04-21T05:41:00;37.20;;;25.63;;
7997;SDS011;4044;49.814;7.828;2023-04-21T05:43:26;37.37;;;25.07;;
7997;SDS011;4044;49.814;7.828;2023-04-21T05:45:51;40.30;;;26.03;;
7997;SDS011;4044;49.814;7.828;2023-04-21T05:48:17;38.77;;;26.27;;
7997;SDS011;4044;49.814;7.828;2023-04-21T05:50:42;37.43;;;25.00;;
7997;SDS011;4044;49.814;7.828;2023-04-21T05:53:08;35.60;;;24.40;;
7997;SDS011;4044;49.814;7.828;2023-04-21T05:55:34;37.93;;;24.43;;
7997;SDS011;4044;49.814;7.828;2023-04-21T05:57:59;34.03;;;23.23;;
7997;SDS011;4044;49.814;7.828;2023-04-21T06:00:25;36.40;;;23.70;;
7997;SDS011;4044;49.814;7.828;2023-04-21T06:02:51;37.53;;;24.17;;
7997;SDS011;4044;49.814;7.828;2023-04-21T06:05:16;37.33;;;25.60;;
7997;SDS011;4044;49.814;7.828;2023-04-21T06:07:42;39.53;;;25.47;;
7997;SDS011;4044;49.814;7.828;2023-04-21T06:10:08;36.10;;;24.70;;
7997;SDS011;4044;49.814;7.828;2023-04-21T06:12:35;38.87;;;25.03;;
7997;SDS011;4044;49.814;7.828;2023-04-21T06:15:00;36.57;;;23.53;;
7997;SDS011;4044;49.814;7.828;2023-04-21T06:17:26;38.87;;;24.57;;
7997;SDS011;4044;49.814;7.828;2023-04-21T06:19:51;35.00;;;23.93;;
7997;SDS011;4044;49.814;7.828;2023-04-21T06:22:18;35.53;;;23.53;;
7997;SDS011;4044;49.814;7.828;2023-04-21T06:24:44;34.97;;;23.97;;
7997;SDS011;4044;49.814;7.828;2023-04-21T06:27:10;35.40;;;24.23;;
7997;SDS011;4044;49.814;7.828;2023-04-21T06:29:36;38.17;;;24.37;;
7997;SDS011;4044;49.814;7.828;2023-04-21T06:32:02;35.43;;;23.77;;
7997;SDS011;4044;49.814;7.828;2023-04-21T06:34:28;34.17;;;24.10;;
7997;SDS011;4044;49.814;7.828;2023-04-21T06:36:53;34.67;;;24.27;;
7997;SDS011;4044;49.814;7.828;2023-04-21T06:39:19;35.97;;;23.57;;
7997;SDS011;4044;49.814;7.828;2023-04-21T06:41:44;33.27;;;23.13;;
7997;SDS011;4044;49.814;7.828;2023-04-21T06:44:10;33.03;;;21.70;;
7997;SDS011;4044;49.814;7.828;2023-04-21T06:46:38;34.30;;;24.03;;
7997;SDS011;4044;49.814;7.828;2023-04-21T06:49:07;33.93;;;23.50;;
7997;SDS011;4044;49.814;7.828;2023-04-21T06:51:32;35.37;;;23.73;;
7997;SDS011;4044;49.814;7.828;2023-04-21T06:53:58;34.77;;;23.47;;
7997;SDS011;4044;49.814;7.828;2023-04-21T06:56:25;31.70;;;21.63;;
7997;SDS011;4044;49.814;7.828;2023-04-21T06:58:51;32.17;;;22.43;;
7997;SDS011;4044;49.814;7.828;2023-04-21T07:01:17;34.13;;;24.37;;
7997;SDS011;4044;49.814;7.828;2023-04-21T07:03:43;33.33;;;22.83;;
7997;SDS011;4044;49.814;7.828;2023-04-21T07:06:08;34.33;;;23.30;;
7997;SDS011;4044;49.814;7.828;2023-04-21T07:08:34;36.07;;;24.17;;
7997;SDS011;4044;49.814;7.828;2023-04-21T07:11:00;36.27;;;23.50;;
7997;SDS011;4044;49.814;7.828;2023-04-21T07:13:26;32.30;;;22.67;;
7997;SDS011;4044;49.814;7.828;2023-04-21T07:15:51;34.77;;;23.10;;
7997;SDS011;4044;49.814;7.828;2023-04-21T07:18:17;33.50;;;24.27;;
7997;SDS011;4044;49.814;7.828;2023-04-21T07:20:43;31.30;;;21.63;;
7997;SDS011;4044;49.814;7.828;2023-04-21T07:23:08;33.27;;;23.73;;
7997;SDS011;4044;49.814;7.828;2023-04-21T07:25:34;32.30;;;24.00;;
7997;SDS011;4044;49.814;7.828;2023-04-21T07:27:59;33.37;;;23.40;;
7997;SDS011;4044;49.814;7.828;2023-04-21T07:30:27;35.03;;;24.33;;
7997;SDS011;4044;49.814;7.828;2023-04-21T07:32:53;32.27;;;22.47;;
7997;SDS011;4044;49.814;7.828;2023-04-21T07:35:19;27.50;;;21.23;;
7997;SDS011;4044;49.814;7.828;2023-04-21T07:37:44;29.30;;;22.00;;
7997;SDS011;4044;49.814;7.828;2023-04-21T07:40:10;28.43;;;21.50;;
7997;SDS011;4044;49.814;7.828;2023-04-21T07:42:36;29.13;;;21.33;;
7997;SDS011;4044;49.814;7.828;2023-04-21T07:45:02;28.37;;;20.90;;
7997;SDS011;4044;49.814;7.828;2023-04-21T07:47:28;28.57;;;21.70;;
7997;SDS011;4044;49.814;7.828;2023-04-21T07:49:53;28.23;;;20.90;;
7997;SDS011;4044;49.814;7.828;2023-04-21T07:52:19;28.30;;;21.73;;
7997;SDS011;4044;49.814;7.828;2023-04-21T07:54:45;30.70;;;21.93;;
7997;SDS011;4044;49.814;7.828;2023-04-21T07:57:10;25.07;;;19.73;;
7997;SDS011;4044;49.814;7.828;2023-04-21T07:59:36;26.97;;;19.83;;
7997;SDS011;4044;49.814;7.828;2023-04-21T08:02:02;23.70;;;18.83;;
7997;SDS011;4044;49.814;7.828;2023-04-21T08:04:28;27.60;;;19.53;;
7997;SDS011;4044;49.814;7.828;2023-04-21T08:06:53;24.87;;;19.43;;
7997;SDS011;4044;49.814;7.828;2023-04-21T08:09:19;24.53;;;19.47;;
7997;SDS011;4044;49.814;7.828;2023-04-21T08:11:45;23.87;;;18.87;;
7997;SDS011;4044;49.814;7.828;2023-04-21T08:14:11;24.13;;;19.37;;
7997;SDS011;4044;49.814;7.828;2023-04-21T08:16:37;21.83;;;17.63;;
7997;SDS011;4044;49.814;7.828;2023-04-21T08:19:04;23.00;;;18.83;;
7997;SDS011;4044;49.814;7.828;2023-04-21T08:21:31;23.23;;;18.87;;
7997;SDS011;4044;49.814;7.828;2023-04-21T08:23:57;21.30;;;17.93;;
7997;SDS011;4044;49.814;7.828;2023-04-21T08:26:23;21.53;;;18.10;;
7997;SDS011;4044;49.814;7.828;2023-04-21T08:28:49;20.20;;;16.67;;
7997;SDS011;4044;49.814;7.828;2023-04-21T08:31:16;22.00;;;17.30;;
7997;SDS011;4044;49.814;7.828;2023-04-21T08:33:42;20.67;;;17.43;;
7997;SDS011;4044;49.814;7.828;2023-04-21T08:36:07;17.97;;;15.67;;
7997;SDS011;4044;49.814;7.828;2023-04-21T08:38:34;15.50;;;13.13;;
7997;SDS011;4044;49.814;7.828;2023-04-21T08:41:00;17.70;;;14.70;;
7997;SDS011;4044;49.814;7.828;2023-04-21T08:43:27;16.10;;;14.40;;
7997;SDS011;4044;49.814;7.828;2023-04-21T08:45:53;17.53;;;14.73;;
7997;SDS011;4044;49.814;7.828;2023-04-21T08:48:20;16.87;;;15.07;;
7997;SDS011;4044;49.814;7.828;2023-04-21T08:50:48;15.73;;;14.07;;
7997;SDS011;4044;49.814;7.828;2023-04-21T08:53:15;13.20;;;11.80;;
7997;SDS011;4044;49.814;7.828;2023-04-21T08:55:41;14.77;;;13.23;;
7997;SDS011;4044;49.814;7.828;2023-04-21T08:58:08;15.23;;;13.10;;
7997;SDS011;4044;49.814;7.828;2023-04-21T09:00:36;13.27;;;11.90;;
7997;SDS011;4044;49.814;7.828;2023-04-21T09:03:03;16.10;;;13.00;;
7997;SDS011;4044;49.814;7.828;2023-04-21T09:05:32;15.43;;;13.50;;
7997;SDS011;4044;49.814;7.828;2023-04-21T09:08:07;15.17;;;13.57;;
7997;SDS011;4044;49.814;7.828;2023-04-21T09:10:34;15.70;;;13.13;;
7997;SDS011;4044;49.814;7.828;2023-04-21T09:13:07;14.87;;;13.13;;
7997;SDS011;4044;49.814;7.828;2023-04-21T09:15:37;15.37;;;13.77;;
7997;SDS011;4044;49.814;7.828;2023-04-21T09:18:13;15.03;;;13.43;;
7997;SDS011;4044;49.814;7.828;2023-04-21T09:20:44;14.50;;;12.80;;
7997;SDS011;4044;49.814;7.828;2023-04-21T09:23:11;14.23;;;12.63;;
7997;SDS011;4044;49.814;7.828;2023-04-21T09:25:38;11.40;;;10.23;;
7997;SDS011;4044;49.814;7.828;2023-04-21T09:28:08;13.70;;;12.10;;
7997;SDS011;4044;49.814;7.828;2023-04-21T09:30:35;12.17;;;11.00;;
7997;SDS011;4044;49.814;7.828;2023-04-21T09:33:05;12.23;;;11.03;;
7997;SDS011;4044;49.814;7.828;2023-04-21T09:35:34;11.33;;;9.83;;
7997;SDS011;4044;49.814;7.828;2023-04-21T09:38:02;11.00;;;9.90;;
7997;SDS011;4044;49.814;7.828;2023-04-21T09:40:28;12.60;;;11.30;;
7997;SDS011;4044;49.814;7.828;2023-04-21T09:42:55;13.10;;;11.27;;
7997;SDS011;4044;49.814;7.828;2023-04-21T09:45:21;12.30;;;10.90;;
7997;SDS011;4044;49.814;7.828;2023-04-21T09:47:50;12.67;;;11.00;;
7997;SDS011;4044;49.814;7.828;2023-04-21T09:50:20;12.73;;;11.43;;
7997;SDS011;4044;49.814;7.828;2023-04-21T09:52:49;12.10;;;10.90;;
7997;SDS011;4044;49.814;7.828;2023-04-21T09:55:16;10.80;;;9.60;;
7997;SDS011;4044;49.814;7.828;2023-04-21T09:57:43;10.80;;;9.70;;
7997;SDS011;4044;49.814;7.828;2023-04-21T10:00:12;9.93;;;8.87;;
7997;SDS011;4044;49.814;7.828;2023-04-21T10:02:42;10.20;;;9.10;;
7997;SDS011;4044;49.814;7.828;2023-04-21T10:05:09;11.30;;;10.13;;
7997;SDS011;4044;49.814;7.828;2023-04-21T10:07:36;12.93;;;11.47;;
7997;SDS011;4044;49.814;7.828;2023-04-21T10:10:01;12.73;;;10.60;;
7997;SDS011;4044;49.814;7.828;2023-04-21T10:12:31;11.80;;;10.60;;
7997;SDS011;4044;49.814;7.828;2023-04-21T10:14:57;12.30;;;11.03;;
7997;SDS011;4044;49.814;7.828;2023-04-21T10:17:27;12.38;;;11.15;;
7997;SDS011;4044;49.814;7.828;2023-04-21T10:19:53;12.50;;;11.23;;
7997;SDS011;4044;49.814;7.828;2023-04-21T10:22:30;12.00;;;10.80;;
7997;SDS011;4044;49.814;7.828;2023-04-21T10:24:58;12.23;;;10.85;;
7997;SDS011;4044;49.814;7.828;2023-04-21T10:30:01;11.00;;;9.88;;
7997;SDS011;4044;49.814;7.828;2023-04-21T10:32:46;11.05;;;9.95;;
7997;SDS011;4044;49.814;7.828;2023-04-21T10:35:20;11.13;;;10.10;;
7997;SDS011;4044;49.814;7.828;2023-04-21T10:37:47;11.00;;;9.90;;
7997;SDS011;4044;49.814;7.828;2023-04-21T10:42:55;8.80;;;7.90;;
7997;SDS011;4044;49.814;7.828;2023-04-21T10:45:23;8.57;;;7.78;;
7997;SDS011;4044;49.814;7.828;2023-04-21T10:47:51;7.97;;;7.20;;
7997;SDS011;4044;49.814;7.828;2023-04-21T10:50:19;7.20;;;6.47;;
7997;SDS011;4044;49.814;7.828;2023-04-21T10:55:21;8.13;;;7.40;;
7997;SDS011;4044;49.814;7.828;2023-04-21T10:57:50;8.02;;;7.32;;
7997;SDS011;4044;49.814;7.828;2023-04-21T11:00:18;8.65;;;7.95;;
7997;SDS011;4044;49.814;7.828;2023-04-21T11:02:52;8.88;;;8.07;;
7997;SDS011;4044;49.814;7.828;2023-04-21T11:05:28;8.52;;;7.78;;
7997;SDS011;4044;49.814;7.828;2023-04-21T11:08:02;8.13;;;7.38;;
7997;SDS011;4044;49.814;7.828;2023-04-21T11:10:49;7.40;;;6.70;;
7997;SDS011;4044;49.814;7.828;2023-04-21T11:13:22;6.88;;;6.18;;
7997;SDS011;4044;49.814;7.828;2023-04-21T11:15:59;6.75;;;6.15;;
7997;SDS011;4044;49.814;7.828;2023-04-21T11:18:33;6.55;;;6.05;;
7997;SDS011;4044;49.814;7.828;2023-04-21T11:21:12;8.90;;;8.00;;
7997;SDS011;4044;49.814;7.828;2023-04-21T11:23:51;7.88;;;7.18;;
7997;SDS011;4044;49.814;7.828;2023-04-21T11:26:28;7.28;;;6.68;;
7997;SDS011;4044;49.814;7.828;2023-04-21T11:29:03;7.68;;;7.03;;
7997;SDS011;4044;49.814;7.828;2023-04-21T11:31:32;7.72;;;7.03;;
7997;SDS011;4044;49.814;7.828;2023-04-21T11:33:59;7.07;;;6.47;;
7997;SDS011;4044;49.814;7.828;2023-04-21T11:36:25;6.07;;;5.55;;
7997;SDS011;4044;49.814;7.828;2023-04-21T11:38:51;6.20;;;5.70;;
7997;SDS011;4044;49.814;7.828;2023-04-21T11:41:23;5.60;;;5.10;;
7997;SDS011;4044;49.814;7.828;2023-04-21T11:43:50;5.82;;;5.22;;
7997;SDS011;4044;49.814;7.828;2023-04-21T11:46:25;4.97;;;4.57;;
7997;SDS011;4044;49.814;7.828;2023-04-21T11:48:59;5.55;;;5.10;;
7997;SDS011;4044;49.814;7.828;2023-04-21T11:51:26;5.68;;;5.15;;
7997;SDS011;4044;49.814;7.828;2023-04-21T11:53:57;7.22;;;6.53;;
7997;SDS011;4044;49.814;7.828;2023-04-21T11:56:23;5.72;;;5.28;;
7997;SDS011;4044;49.814;7.828;2023-04-21T11:58:49;8.05;;;7.35;;
7997;SDS011;4044;49.814;7.828;2023-04-21T12:01:16;7.68;;;7.00;;
7997;SDS011;4044;49.814;7.828;2023-04-21T12:03:50;8.52;;;7.68;;
7997;SDS011;4044;49.814;7.828;2023-04-21T12:06:23;8.10;;;7.40;;
7997;SDS011;4044;49.814;7.828;2023-04-21T12:09:00;7.43;;;6.82;;
7997;SDS011;4044;49.814;7.828;2023-04-21T12:11:27;9.57;;;8.77;;
7997;SDS011;4044;49.814;7.828;2023-04-21T12:13:57;9.13;;;8.38;;
7997;SDS011;4044;49.814;7.828;2023-04-21T12:16:26;9.57;;;8.68;;
7997;SDS011;4044;49.814;7.828;2023-04-21T12:18:53;8.88;;;8.18;;
7997;SDS011;4044;49.814;7.828;2023-04-21T12:21:19;9.27;;;8.57;;
7997;SDS011;4044;49.814;7.828;2023-04-21T12:23:45;8.77;;;8.07;;
7997;SDS011;4044;49.814;7.828;2023-04-21T12:26:11;8.10;;;7.40;;
7997;SDS011;4044;49.814;7.828;2023-04-21T12:28:36;7.28;;;6.78;;
7997;SDS011;4044;49.814;7.828;2023-04-21T12:31:03;6.60;;;6.00;;
7997;SDS011;4044;49.814;7.828;2023-04-21T12:33:29;7.82;;;7.15;;
7997;SDS011;4044;49.814;7.828;2023-04-21T12:35:55;7.50;;;6.80;;
7997;SDS011;4044;49.814;7.828;2023-04-21T12:38:20;7.80;;;7.28;;
7997;SDS011;4044;49.814;7.828;2023-04-21T12:40:46;7.28;;;6.70;;
7997;SDS011;4044;49.814;7.828;2023-04-21T12:43:12;6.80;;;6.30;;
7997;SDS011;4044;49.814;7.828;2023-04-21T12:45:38;8.25;;;7.55;;
7997;SDS011;4044;49.814;7.828;2023-04-21T12:48:04;7.32;;;6.72;;
7997;SDS011;4044;49.814;7.828;2023-04-21T12:50:30;7.93;;;7.30;;
7997;SDS011;4044;49.814;7.828;2023-04-21T12:52:56;7.90;;;7.30;;
7997;SDS011;4044;49.814;7.828;2023-04-21T12:55:21;7.47;;;6.97;;
7997;SDS011;4044;49.814;7.828;2023-04-21T12:57:47;7.85;;;7.28;;
7997;SDS011;4044;49.814;7.828;2023-04-21T13:00:14;7.75;;;7.15;;
7997;SDS011;4044;49.814;7.828;2023-04-21T13:02:40;9.13;;;8.43;;
7997;SDS011;4044;49.814;7.828;2023-04-21T13:05:06;8.70;;;8.00;;
7997;SDS011;4044;49.814;7.828;2023-04-21T13:07:33;8.32;;;7.63;;
7997;SDS011;4044;49.814;7.828;2023-04-21T13:10:00;9.63;;;8.82;;
7997;SDS011;4044;49.814;7.828;2023-04-21T13:12:26;9.57;;;8.85;;
7997;SDS011;4044;49.814;7.828;2023-04-21T13:14:52;8.60;;;7.93;;
7997;SDS011;4044;49.814;7.828;2023-04-21T13:17:18;9.65;;;8.80;;
7997;SDS011;4044;49.814;7.828;2023-04-21T13:19:43;10.07;;;9.35;;
7997;SDS011;4044;49.814;7.828;2023-04-21T13:22:09;9.95;;;9.15;;
7997;SDS011;4044;49.814;7.828;2023-04-21T13:24:34;11.93;;;10.93;;
7997;SDS011;4044;49.814;7.828;2023-04-21T13:27:00;10.77;;;9.93;;
7997;SDS011;4044;49.814;7.828;2023-04-21T13:29:26;11.70;;;10.70;;
7997;SDS011;4044;49.814;7.828;2023-04-21T13:31:54;12.80;;;11.70;;
7997;SDS011;4044;49.814;7.828;2023-04-21T13:34:20;11.30;;;10.40;;
7997;SDS011;4044;49.814;7.828;2023-04-21T13:36:45;11.68;;;10.77;;
7997;SDS011;4044;49.814;7.828;2023-04-21T13:39:11;11.88;;;10.90;;
7997;SDS011;4044;49.814;7.828;2023-04-21T13:41:37;10.82;;;9.93;;
7997;SDS011;4044;49.814;7.828;2023-04-21T13:44:02;12.38;;;11.15;;
7997;SDS011;4044;49.814;7.828;2023-04-21T13:46:28;20.65;;;13.13;;
7997;SDS011;4044;49.814;7.828;2023-04-21T13:48:54;12.75;;;10.80;;
7997;SDS011;4044;49.814;7.828;2023-04-21T13:51:19;10.93;;;9.82;;
7997;SDS011;4044;49.814;7.828;2023-04-21T13:53:45;10.52;;;9.57;;
7997;SDS011;4044;49.814;7.828;2023-04-21T13:56:10;9.07;;;8.35;;
7997;SDS011;4044;49.814;7.828;2023-04-21T13:58:37;10.20;;;9.40;;
7997;SDS011;4044;49.814;7.828;2023-04-21T14:01:03;9.75;;;8.50;;
7997;SDS011;4044;49.814;7.828;2023-04-21T14:03:29;10.02;;;9.23;;
7997;SDS011;4044;49.814;7.828;2023-04-21T14:05:54;10.77;;;9.88;;
7997;SDS011;4044;49.814;7.828;2023-04-21T14:08:20;11.30;;;10.40;;
7997;SDS011;4044;49.814;7.828;2023-04-21T14:10:46;10.75;;;9.93;;
7997;SDS011;4044;49.814;7.828;2023-04-21T14:13:12;11.07;;;10.18;;
7997;SDS011;4044;49.814;7.828;2023-04-21T14:15:38;10.95;;;10.05;;
7997;SDS011;4044;49.814;7.828;2023-04-21T14:18:03;11.90;;;10.90;;
7997;SDS011;4044;49.814;7.828;2023-04-21T14:20:29;11.40;;;10.30;;
7997;SDS011;4044;49.814;7.828;2023-04-21T14:22:55;12.48;;;11.48;;
7997;SDS011;4044;49.814;7.828;2023-04-21T14:25:20;11.88;;;10.82;;
7997;SDS011;4044;49.814;7.828;2023-04-21T14:27:46;12.80;;;11.60;;
7997;SDS011;4044;49.814;7.828;2023-04-21T14:30:12;11.65;;;10.75;;
7997;SDS011;4044;49.814;7.828;2023-04-21T14:32:38;12.95;;;11.85;;
7997;SDS011;4044;49.814;7.828;2023-04-21T14:35:10;12.38;;;11.38;;
7997;SDS011;4044;49.814;7.828;2023-04-21T14:37:36;12.10;;;11.02;;
7997;SDS011;4044;49.814;7.828;2023-04-21T14:40:02;12.85;;;11.55;;
7997;SDS011;4044;49.814;7.828;2023-04-21T14:42:28;12.88;;;11.68;;
7997;SDS011;4044;49.814;7.828;2023-04-21T14:44:54;12.95;;;11.65;;
7997;SDS011;4044;49.814;7.828;2023-04-21T14:47:20;11.88;;;10.73;;
7997;SDS011;4044;49.814;7.828;2023-04-21T14:49:46;11.88;;;10.55;;
7997;SDS011;4044;49.814;7.828;2023-04-21T14:52:13;10.77;;;9.13;;
7997;SDS011;4044;49.814;7.828;2023-04-21T14:54:39;10.10;;;9.20;;
7997;SDS011;4044;49.814;7.828;2023-04-21T14:57:05;10.85;;;9.95;;
7997;SDS011;4044;49.814;7.828;2023-04-21T14:59:30;9.80;;;8.95;;
7997;SDS011;4044;49.814;7.828;2023-04-21T15:01:56;9.52;;;8.70;;